Time;durP1;ratioP1;P1;durP2;ratioP2;P2;SDS_P1;SDS_P2;PMS_P1;PMS_P2;Temp;Humidity;BMP_temperature;BMP_pressure;BME280_temperature;BME280_humidity;BME280_pressure;Samples;Min_cycle;Max_cycle;Signal;HPM_P1;HPM_P2
2022/08/19 00:01:03;;;;;;;;;;;;;;;;;;5089265;28;20420;-71
2022/08/19 00:03:28;;;;;;;;;;;;;;;;;;5088901;28;19924;-70
2022/08/19 00:05:55;;;;;;;;;;;;;;;;;;5087215;28;20270;-71
2022/08/19 00:08:20;;;;;;;;;;;;;;;;;;5089344;28;19928;-70
2022/08/19 00:10:47;;;;;;;;;;;;;;;;;;5088702;28;19957;-74
2022/08/19 00:13:14;;;;;;;;;;;;;;;;;;5085920;28;19924;-71
2022/08/19 00:15:44;;;;;;;;;;;;;;;;;;5088422;28;19927;-71
2022/08/19 00:18:10;;;;;;;;;;;;;;;;;;5087841;28;21745;-70
2022/08/19 00:20:38;;;;;;;;;;;;;;;;;;5089372;28;19920;-71
2022/08/19 00:23:04;;;;;;;;;;;;;;;;;;5088173;28;19926;-71
2022/08/19 00:25:30;;;;;;;;;;;;;;;;;;5089892;28;19963;-71
2022/08/19 00:27:56;;;;;;;;;;;;;;;;;;5069581;28;19982;-71
2022/08/19 00:30:22;;;;;;;;;;;;;;;;;;5086855;28;19974;-72
2022/08/19 00:32:48;;;;;;;;;;;;;;;;;;5087074;28;19920;-73
2022/08/19 00:35:14;;;;;;;;;;;;;;;;;;5088866;28;19920;-72
2022/08/19 00:37:43;;;;;;;;;;;;;;;;;;5088277;28;19969;-71
2022/08/19 00:40:08;;;;;;;;;;;;;;;;;;5070487;28;20003;-71
2022/08/19 00:42:34;;;;;;;;;;;;;;;;;;5088563;28;20270;-71
2022/08/19 00:45:00;;;;;;;;;;;;;;;;;;5088202;28;19966;-70
2022/08/19 00:47:26;;;;;;;;;;;;;;;;;;5081214;28;19928;-71
2022/08/19 00:49:52;;;;;;;;;;;;;;;;;;5089715;28;19932;-71
2022/08/19 00:52:18;;;;;;;;;;;;;;;;;;5083044;28;19974;-71
2022/08/19 00:54:44;;;;;;;;;;;;;;;;;;5087187;28;20370;-71
2022/08/19 00:57:12;;;;;;;;;;;;;;;;;;5083392;28;20473;-71
2022/08/19 00:59:38;;;;;;;;;;;;;;;;;;5086389;28;19959;-71
2022/08/19 01:02:04;;;;;;;;;;;;;;;;;;5068208;28;19982;-71
2022/08/19 01:04:30;;;;;;;;;;;;;;;;;;5087558;28;19943;-72
2022/08/19 01:06:56;;;;;;;;;;;;;;;;;;5088168;28;19920;-71
2022/08/19 01:09:22;;;;;;;;;;;;;;;;;;5084861;28;20014;-70
2022/08/19 01:11:48;;;;;;;;;;;;;;;;;;5084101;28;19942;-73
2022/08/19 01:14:14;;;;;;;;;;;;;;;;;;5086029;28;19966;-70
2022/08/19 01:16:39;;;;;;;;;;;;;;;;;;5087467;28;19940;-70
2022/08/19 01:19:05;;;;;;;;;;;;;;;;;;5082491;28;19923;-70
2022/08/19 01:21:31;;;;;;;;;;;;;;;;;;5084657;28;19921;-71
2022/08/19 01:23:57;;;;;;;;;;;;;;;;;;5086560;28;19928;-71
2022/08/19 01:26:23;;;;;;;;;;;;;;;;;;5090836;28;19928;-70
2022/08/19 01:28:50;;;;;;;;;;;;;;;;;;5067077;28;20372;-70
2022/08/19 01:31:16;;;;;;;;;;;;;;;;;;5084616;28;19973;-70
2022/08/19 01:33:42;;;;;;;;;;;;;;;;;;5088206;28;19940;-73
2022/08/19 01:36:08;;;;;;;;;;;;;;;;;;5087462;28;19927;-70
2022/08/19 01:38:34;;;;;;;;;;;;;;;;;;5084440;28;19920;-70
2022/08/19 01:41:00;;;;;;;;;;;;;;;;;;5081633;28;19926;-70
2022/08/19 01:43:26;;;;;;;;;;;;;;;;;;5088090;28;19924;-70
2022/08/19 01:45:52;;;;;;;;;;;;;;;;;;5089623;28;19943;-73
2022/08/19 01:48:18;;;;;;;;;;;;;;;;;;5085350;28;20014;-71
2022/08/19 01:50:44;;;;;;;;;;;;;;;;;;5083254;28;20011;-70
2022/08/19 01:53:10;;;;;;;;;;;;;;;;;;5086330;28;19930;-70
2022/08/19 01:55:36;;;;;;;;;;;;;;;;;;5089645;28;19939;-74
2022/08/19 01:58:02;;;;;;;;;;;;;;;;;;5067520;28;19931;-73
2022/08/19 02:00:28;;;;;;;;;;;;;;;;;;5064817;28;20286;-70
2022/08/19 02:02:54;;;;;;;;;;;;;;;;;;5086304;28;19920;-74
2022/08/19 02:05:21;;;;;;;;;;;;;;;;;;5089076;28;20333;-71
2022/08/19 02:07:47;;;;;;;;;;;;;;;;;;5087468;28;19920;-70
2022/08/19 02:10:13;;;;;;;;;;;;;;;;;;5083408;28;19934;-70
2022/08/19 02:12:39;;;;;;;;;;;;;;;;;;5099524;28;19931;-70
2022/08/19 02:15:05;;;;;;;;;;;;;;;;;;5083558;28;19920;-73
2022/08/19 02:17:31;;;;;;;;;;;;;;;;;;5086983;28;20820;-71
2022/08/19 02:19:57;;;;;;;;;;;;;;;;;;5066600;28;19924;-71
2022/08/19 02:22:25;;;;;;;;;;;;;;;;;;5087872;28;20401;-70
2022/08/19 02:24:51;;;;;;;;;;;;;;;;;;5086605;28;19920;-73
2022/08/19 02:27:17;;;;;;;;;;;;;;;;;;5100064;28;20479;-73
2022/08/19 02:29:43;;;;;;;;;;;;;;;;;;5083466;28;20023;-72
2022/08/19 02:32:09;;;;;;;;;;;;;;;;;;5083635;28;20342;-70
2022/08/19 02:34:34;;;;;;;;;;;;;;;;;;5085659;28;19920;-70
2022/08/19 02:37:00;;;;;;;;;;;;;;;;;;5085384;28;19920;-70
2022/08/19 02:39:26;;;;;;;;;;;;;;;;;;5083230;28;19970;-70
2022/08/19 02:41:52;;;;;;;;;;;;;;;;;;5088083;28;20591;-70
2022/08/19 02:44:18;;;;;;;;;;;;;;;;;;5064697;28;19924;-70
2022/08/19 02:46:44;;;;;;;;;;;;;;;;;;5086558;28;19927;-70
2022/08/19 02:49:10;;;;;;;;;;;;;;;;;;5084508;28;20066;-72
2022/08/19 02:51:36;;;;;;;;;;;;;;;;;;5086418;28;19966;-70
2022/08/19 02:54:02;;;;;;;;;;;;;;;;;;5086950;28;19920;-73
2022/08/19 02:56:28;;;;;;;;;;;;;;;;;;5085653;28;19920;-70
2022/08/19 02:58:54;;;;;;;;;;;;;;;;;;5070384;28;19928;-70
2022/08/19 03:01:20;;;;;;;;;;;;;;;;;;5083269;28;19967;-71
2022/08/19 03:03:46;;;;;;;;;;;;;;;;;;5084260;28;20023;-73
2022/08/19 03:06:12;;;;;;;;;;;;;;;;;;5069397;28;19920;-70
2022/08/19 03:08:38;;;;;;;;;;;;;;;;;;5085651;28;19920;-72
2022/08/19 03:11:04;;;;;;;;;;;;;;;;;;5083203;28;20001;-74
2022/08/19 03:13:30;;;;;;;;;;;;;;;;;;5086192;28;19928;-70
2022/08/19 03:15:56;;;;;;;;;;;;;;;;;;5082967;28;19935;-70
2022/08/19 03:18:22;;;;;;;;;;;;;;;;;;5086675;28;19926;-71
2022/08/19 03:20:48;;;;;;;;;;;;;;;;;;5070254;28;19920;-70
2022/08/19 03:23:15;;;;;;;;;;;;;;;;;;5087199;28;19920;-71
2022/08/19 03:25:42;;;;;;;;;;;;;;;;;;5082962;28;20007;-73
2022/08/19 03:28:08;;;;;;;;;;;;;;;;;;5083782;28;19935;-71
2022/08/19 03:30:34;;;;;;;;;;;;;;;;;;5086446;28;19920;-71
2022/08/19 03:33:00;;;;;;;;;;;;;;;;;;5066649;28;19946;-74
2022/08/19 03:35:26;;;;;;;;;;;;;;;;;;5084811;28;19920;-71
2022/08/19 03:37:52;;;;;;;;;;;;;;;;;;5083019;28;19920;-71
2022/08/19 03:40:18;;;;;;;;;;;;;;;;;;5087089;28;19920;-71
2022/08/19 03:42:46;;;;;;;;;;;;;;;;;;5086713;28;19942;-74
2022/08/19 03:45:11;;;;;;;;;;;;;;;;;;5086849;28;20275;-71
2022/08/19 03:47:37;;;;;;;;;;;;;;;;;;5085155;28;19930;-71
2022/08/19 03:50:04;;;;;;;;;;;;;;;;;;5091919;28;19920;-74
2022/08/19 03:52:30;;;;;;;;;;;;;;;;;;5090997;28;19968;-73
2022/08/19 03:54:56;;;;;;;;;;;;;;;;;;5090167;28;20326;-71
2022/08/19 03:57:21;;;;;;;;;;;;;;;;;;5066201;28;19935;-71
2022/08/19 03:59:47;;;;;;;;;;;;;;;;;;5089572;28;19972;-71
2022/08/19 04:02:14;;;;;;;;;;;;;;;;;;5089272;28;20031;-71
2022/08/19 04:04:40;;;;;;;;;;;;;;;;;;5088348;28;19928;-71
2022/08/19 04:07:06;;;;;;;;;;;;;;;;;;5085799;28;19927;-74
2022/08/19 04:09:31;;;;;;;;;;;;;;;;;;5086207;28;19920;-71
2022/08/19 04:11:57;;;;;;;;;;;;;;;;;;5090155;28;19955;-71
2022/08/19 04:14:24;;;;;;;;;;;;;;;;;;5089160;28;19939;-74
2022/08/19 04:16:50;;;;;;;;;;;;;;;;;;5087011;28;19932;-72
2022/08/19 04:19:16;;;;;;;;;;;;;;;;;;5086306;28;20393;-71
2022/08/19 04:21:42;;;;;;;;;;;;;;;;;;5087667;28;19972;-71
2022/08/19 04:24:08;;;;;;;;;;;;;;;;;;5089891;28;19971;-72
2022/08/19 04:26:34;;;;;;;;;;;;;;;;;;5085923;28;19950;-72
2022/08/19 04:29:00;;;;;;;;;;;;;;;;;;5062009;28;19921;-71
2022/08/19 04:31:26;;;;;;;;;;;;;;;;;;5087136;28;20073;-71
2022/08/19 04:33:52;;;;;;;;;;;;;;;;;;5092432;28;20011;-71
2022/08/19 04:36:20;;;;;;;;;;;;;;;;;;5087100;28;19963;-74
2022/08/19 04:38:46;;;;;;;;;;;;;;;;;;5087500;28;20022;-71
2022/08/19 04:43:56;;;;;;;;;;;;;;;;;;5106402;28;19935;-71
2022/08/19 04:46:22;;;;;;;;;;;;;;;;;;5066938;28;19924;-72
2022/08/19 04:48:48;;;;;;;;;;;;;;;;;;5087622;28;19920;-71
2022/08/19 04:51:15;;;;;;;;;;;;;;;;;;5098831;28;19965;-72
2022/08/19 04:53:41;;;;;;;;;;;;;;;;;;5101852;28;19923;-71
2022/08/19 04:56:07;;;;;;;;;;;;;;;;;;5099344;28;20355;-72
2022/08/19 04:58:33;;;;;;;;;;;;;;;;;;5102081;28;20007;-72
2022/08/19 05:00:59;;;;;;;;;;;;;;;;;;5096044;28;19983;-72
2022/08/19 05:03:25;;;;;;;;;;;;;;;;;;5066830;28;20003;-72
2022/08/19 05:05:51;;;;;;;;;;;;;;;;;;5068147;28;20015;-73
2022/08/19 05:08:20;;;;;;;;;;;;;;;;;;5088853;28;19928;-76
2022/08/19 05:10:46;;;;;;;;;;;;;;;;;;5091787;28;20358;-71
2022/08/19 05:13:12;;;;;;;;;;;;;;;;;;5095325;28;19920;-71
2022/08/19 05:15:38;;;;;;;;;;;;;;;;;;5097311;28;19920;-71
2022/08/19 05:23:34;;;;;;;;;;;;;;;;;;5099743;28;20309;-72
2022/08/19 05:26:00;;;;;;;;;;;;;;;;;;5073657;28;19923;-72
2022/08/19 05:28:26;;;;;;;;;;;;;;;;;;5091463;28;20046;-77
2022/08/19 05:30:55;;;;;;;;;;;;;;;;;;5096393;28;20347;-73
2022/08/19 05:33:21;;;;;;;;;;;;;;;;;;5091880;28;19920;-72
2022/08/19 05:35:49;;;;;;;;;;;;;;;;;;5101565;28;19927;-74
2022/08/19 05:38:15;;;;;;;;;;;;;;;;;;5089727;28;19920;-73
2022/08/19 05:40:41;;;;;;;;;;;;;;;;;;5091839;28;19920;-72
2022/08/19 05:43:07;;;;;;;;;;;;;;;;;;5102541;28;19927;-72
2022/08/19 05:45:33;;;;;;;;;;;;;;;;;;5100002;28;19923;-73
2022/08/19 05:47:59;;;;;;;;;;;;;;;;;;5108788;28;20008;-72
2022/08/19 05:50:26;;;;;;;;;;;;;;;;;;5094766;28;20307;-73
2022/08/19 05:52:52;;;;;;;;;;;;;;;;;;5100272;28;19928;-75
2022/08/19 05:55:19;;;;;;;;;;;;;;;;;;5075528;28;19927;-76
2022/08/19 05:57:45;;;;;;;;;;;;;;;;;;5091080;28;19924;-73
2022/08/19 06:00:12;;;;;;;;;;;;;;;;;;5074754;28;19973;-72
2022/08/19 06:02:38;;;;;;;;;;;;;;;;;;5086848;28;19921;-73
2022/08/19 06:05:04;;;;;;;;;;;;;;;;;;5107992;27;19927;-71
2022/08/19 06:07:30;;;;;;;;;;;;;;;;;;5091936;28;19952;-71
2022/08/19 06:09:56;;;;;;;;;;;;;;;;;;5081597;28;19924;-72
2022/08/19 06:12:28;;;;;;;;;;;;;;;;;;5082317;28;19974;-72
2022/08/19 06:14:54;;;;;;;;;;;;;;;;;;5083861;28;19920;-72
2022/08/19 06:17:22;;;;;;;;;;;;;;;;;;5081927;28;19928;-72
2022/08/19 06:19:49;;;;;;;;;;;;;;;;;;5099936;28;19920;-72
2022/08/19 06:22:15;;;;;;;;;;;;;;;;;;5070932;28;20270;-76
2022/08/19 06:24:41;;;;;;;;;;;;;;;;;;5109056;28;20014;-72
2022/08/19 06:27:07;;;;;;;;;;;;;;;;;;5074517;28;19991;-71
2022/08/19 06:29:34;;;;;;;;;;;;;;;;;;5091409;28;19923;-71
2022/08/19 06:32:00;;;;;;;;;;;;;;;;;;5079966;28;19920;-72
2022/08/19 06:34:27;;;;;;;;;;;;;;;;;;5100348;28;19920;-72
2022/08/19 06:36:53;;;;;;;;;;;;;;;;;;5101424;28;19931;-72
2022/08/19 06:39:19;;;;;;;;;;;;;;;;;;5095830;28;20282;-72
2022/08/19 06:41:45;;;;;;;;;;;;;;;;;;5088935;28;19930;-74
2022/08/19 06:44:11;;;;;;;;;;;;;;;;;;5099108;28;19927;-72
2022/08/19 06:46:37;;;;;;;;;;;;;;;;;;5072281;28;19925;-72
2022/08/19 06:49:03;;;;;;;;;;;;;;;;;;5094098;28;19923;-75
2022/08/19 06:51:31;;;;;;;;;;;;;;;;;;5085654;28;19928;-72
2022/08/19 06:53:57;;;;;;;;;;;;;;;;;;5086644;28;19927;-72
2022/08/19 06:56:24;;;;;;;;;;;;;;;;;;5057968;28;19928;-72
2022/08/19 06:58:52;;;;;;;;;;;;;;;;;;5098696;28;19924;-73
2022/08/19 07:01:18;;;;;;;;;;;;;;;;;;5091622;28;19920;-76
2022/08/19 07:03:44;;;;;;;;;;;;;;;;;;5085646;28;19932;-72
2022/08/19 07:06:10;;;;;;;;;;;;;;;;;;5079256;28;19963;-72
2022/08/19 07:08:42;;;;;;;;;;;;;;;;;;5077770;28;19966;-72
2022/08/19 07:11:09;;;;;;;;;;;;;;;;;;5091296;28;19920;-72
2022/08/19 07:13:36;;;;;;;;;;;;;;;;;;5090218;28;20340;-72
2022/08/19 07:16:02;;;;;;;;;;;;;;;;;;5091078;28;19931;-72
2022/08/19 07:18:28;;;;;;;;;;;;;;;;;;5076420;28;19920;-73
2022/08/19 07:20:56;;;;;;;;;;;;;;;;;;5088756;28;19924;-72
2022/08/19 07:23:22;;;;;;;;;;;;;;;;;;5084426;28;19927;-77
2022/08/19 07:25:48;;;;;;;;;;;;;;;;;;5095728;28;19919;-72
2022/08/19 07:28:14;;;;;;;;;;;;;;;;;;5084691;28;20385;-72
2022/08/19 07:30:40;;;;;;;;;;;;;;;;;;5094633;28;20316;-72
2022/08/19 07:33:06;;;;;;;;;;;;;;;;;;5096523;28;20476;-72
2022/08/19 07:35:32;;;;;;;;;;;;;;;;;;5075408;28;19962;-73
2022/08/19 07:37:58;;;;;;;;;;;;;;;;;;5084156;28;19934;-72
2022/08/19 07:40:24;;;;;;;;;;;;;;;;;;5097672;28;19927;-73
2022/08/19 07:42:50;;;;;;;;;;;;;;;;;;5089899;28;19921;-73
2022/08/19 07:45:16;;;;;;;;;;;;;;;;;;5098661;28;19933;-76
2022/08/19 07:47:42;;;;;;;;;;;;;;;;;;5051176;28;20005;-72
2022/08/19 07:50:08;;;;;;;;;;;;;;;;;;5084320;28;19960;-73
2022/08/19 07:52:36;;;;;;;;;;;;;;;;;;5067993;28;19920;-73
2022/08/19 07:55:03;;;;;;;;;;;;;;;;;;5085135;28;19920;-75
2022/08/19 07:57:29;;;;;;;;;;;;;;;;;;5067392;28;19927;-73
2022/08/19 07:59:55;;;;;;;;;;;;;;;;;;5085560;28;19979;-72
2022/08/19 08:02:21;;;;;;;;;;;;;;;;;;5092673;28;20331;-72
2022/08/19 08:10:17;;;;;;;;;;;;;;;;;;5086756;28;20359;-72
2022/08/19 08:12:43;;;;;;;;;;;;;;;;;;5097605;28;19919;-72
2022/08/19 08:15:09;;;;;;;;;;;;;;;;;;5096284;28;19920;-72
2022/08/19 08:17:36;;;;;;;;;;;;;;;;;;5084177;28;19920;-73
2022/08/19 08:20:02;;;;;;;;;;;;;;;;;;5090043;28;19973;-74
2022/08/19 08:25:26;;;;;;;;;;;;;;;;;;5067187;28;19921;-78
2022/08/19 08:27:52;;;;;;;;;;;;;;;;;;5091440;28;19965;-73
2022/08/19 08:30:18;;;;;;;;;;;;;;;;;;5115786;27;19927;-73
2022/08/19 08:32:44;;;;;;;;;;;;;;;;;;5100388;28;19924;-73
2022/08/19 08:35:10;;;;;;;;;;;;;;;;;;5094378;28;19920;-75
2022/08/19 08:37:36;;;;;;;;;;;;;;;;;;5109719;27;20029;-73
2022/08/19 08:40:02;;;;;;;;;;;;;;;;;;5092852;28;19924;-75
2022/08/19 08:42:28;;;;;;;;;;;;;;;;;;5104896;28;20003;-77
2022/08/19 08:44:55;;;;;;;;;;;;;;;;;;5101759;28;19919;-75
2022/08/19 08:47:21;;;;;;;;;;;;;;;;;;5093877;28;19974;-73
2022/08/19 08:49:47;;;;;;;;;;;;;;;;;;5075333;28;19978;-73
2022/08/19 08:52:13;;;;;;;;;;;;;;;;;;5062287;28;19932;-73
2022/08/19 08:54:39;;;;;;;;;;;;;;;;;;5092349;28;19920;-73
2022/08/19 08:57:05;;;;;;;;;;;;;;;;;;5093118;28;19920;-73
2022/08/19 08:59:32;;;;;;;;;;;;;;;;;;5070126;28;19924;-73
2022/08/19 09:01:58;;;;;;;;;;;;;;;;;;5067821;28;19928;-73
2022/08/19 09:04:23;;;;;;;;;;;;;;;;;;5061990;28;19932;-73
2022/08/19 09:06:49;;;;;;;;;;;;;;;;;;5079622;28;20007;-75
2022/08/19 09:09:16;;;;;;;;;;;;;;;;;;5080071;28;19925;-73
2022/08/19 09:11:42;;;;;;;;;;;;;;;;;;5086335;28;19931;-77
2022/08/19 09:14:08;;;;;;;;;;;;;;;;;;5102553;28;20351;-72
2022/08/19 09:16:34;;;;;;;;;;;;;;;;;;5075221;28;20377;-73
2022/08/19 09:19:00;;;;;;;;;;;;;;;;;;5074231;28;20244;-71
2022/08/19 09:21:27;;;;;;;;;;;;;;;;;;5100683;28;19941;-71
2022/08/19 09:23:53;;;;;;;;;;;;;;;;;;5104262;27;19920;-73
2022/08/19 09:26:20;;;;;;;;;;;;;;;;;;5104126;28;19972;-72
2022/08/19 09:28:45;;;;;;;;;;;;;;;;;;5107977;28;19924;-73
2022/08/19 09:31:11;;;;;;;;;;;;;;;;;;5090827;28;19927;-72
2022/08/19 09:33:38;;;;;;;;;;;;;;;;;;5073192;28;20239;-72
2022/08/19 09:36:06;;;;;;;;;;;;;;;;;;5106787;27;20403;-75
2022/08/19 09:38:32;;;;;;;;;;;;;;;;;;5094342;28;19971;-78
2022/08/19 09:40:58;;;;;;;;;;;;;;;;;;5091347;28;19986;-73
2022/08/19 09:43:25;;;;;;;;;;;;;;;;;;5095064;28;20324;-73
2022/08/19 09:45:51;;;;;;;;;;;;;;;;;;5065412;28;19955;-73
2022/08/19 09:48:18;;;;;;;;;;;;;;;;;;5088663;28;20421;-73
2022/08/19 09:50:44;;;;;;;;;;;;;;;;;;5088629;28;19927;-72
2022/08/19 09:53:10;;;;;;;;;;;;;;;;;;5080008;28;19924;-72
2022/08/19 09:55:36;;;;;;;;;;;;;;;;;;5095912;28;20077;-72
2022/08/19 09:58:02;;;;;;;;;;;;;;;;;;5090605;28;19981;-72
2022/08/19 10:00:28;;;;;;;;;;;;;;;;;;5078062;28;19924;-73
2022/08/19 10:02:54;;;;;;;;;;;;;;;;;;5093330;28;19935;-77
2022/08/19 10:08:05;;;;;;;;;;;;;;;;;;5102769;28;20003;-72
2022/08/19 10:10:30;;;;;;;;;;;;;;;;;;5091508;28;20003;-73
2022/08/19 10:12:56;;;;;;;;;;;;;;;;;;5072724;28;19932;-70
2022/08/19 10:15:22;;;;;;;;;;;;;;;;;;5071220;28;19924;-73
2022/08/19 10:17:48;;;;;;;;;;;;;;;;;;5102531;28;19919;-73
2022/08/19 10:20:14;;;;;;;;;;;;;;;;;;5100357;28;19975;-76
2022/08/19 10:22:41;;;;;;;;;;;;;;;;;;5093655;28;19990;-72
2022/08/19 10:25:07;;;;;;;;;;;;;;;;;;5105008;28;20015;-72
2022/08/19 10:27:33;;;;;;;;;;;;;;;;;;5098721;27;20019;-73
2022/08/19 10:29:59;;;;;;;;;;;;;;;;;;5097528;28;20036;-72
2022/08/19 10:32:25;;;;;;;;;;;;;;;;;;5091071;28;19920;-73
2022/08/19 10:34:52;;;;;;;;;;;;;;;;;;5066076;28;19932;-74
2022/08/19 10:37:18;;;;;;;;;;;;;;;;;;5090218;28;19942;-72
2022/08/19 10:39:43;;;;;;;;;;;;;;;;;;5073816;28;20406;-73
2022/08/19 10:42:13;;;;;;;;;;;;;;;;;;5075549;28;20309;-77
2022/08/19 10:44:39;;;;;;;;;;;;;;;;;;5055951;28;19920;-74
2022/08/19 10:47:05;;;;;;;;;;;;;;;;;;5059818;28;20053;-73
2022/08/19 10:49:32;;;;;;;;;;;;;;;;;;5071052;28;20022;-73
2022/08/19 10:57:29;;;;;;;;;;;;;;;;;;5101373;28;19927;-73
2022/08/19 10:59:54;;;;;;;;;;;;;;;;;;5100176;28;19919;-73
2022/08/19 11:02:20;;;;;;;;;;;;;;;;;;5102689;28;19949;-73
2022/08/19 11:04:49;;;;;;;;;;;;;;;;;;5076937;28;20002;-73
2022/08/19 11:07:15;;;;;;;;;;;;;;;;;;5085554;28;19920;-73
2022/08/19 11:09:41;;;;;;;;;;;;;;;;;;5100143;28;20258;-77
2022/08/19 11:12:07;;;;;;;;;;;;;;;;;;5093205;28;19968;-73
2022/08/19 11:14:33;;;;;;;;;;;;;;;;;;5091169;28;19923;-72
2022/08/19 11:16:59;;;;;;;;;;;;;;;;;;5095077;28;20504;-72
2022/08/19 11:19:25;;;;;;;;;;;;;;;;;;5082142;28;19920;-74
2022/08/19 11:21:52;;;;;;;;;;;;;;;;;;5109628;28;19924;-72
2022/08/19 11:24:18;;;;;;;;;;;;;;;;;;5089588;28;19964;-73
2022/08/19 11:26:44;;;;;;;;;;;;;;;;;;5100840;28;20019;-72
2022/08/19 11:29:13;;;;;;;;;;;;;;;;;;5066656;28;19935;-76
2022/08/19 11:31:39;;;;;;;;;;;;;;;;;;5087845;28;19920;-72
2022/08/19 11:34:05;;;;;;;;;;;;;;;;;;5088194;28;19920;-72
2022/08/19 11:36:32;;;;;;;;;;;;;;;;;;5077745;28;19924;-74
2022/08/19 11:38:58;;;;;;;;;;;;;;;;;;5073356;28;19951;-72
2022/08/19 11:41:24;;;;;;;;;;;;;;;;;;5072116;28;19982;-73
2022/08/19 11:43:50;;;;;;;;;;;;;;;;;;5071749;28;19973;-73
2022/08/19 11:46:16;;;;;;;;;;;;;;;;;;5105474;28;19930;-73
2022/08/19 11:48:42;;;;;;;;;;;;;;;;;;5099563;28;20011;-73
2022/08/19 11:51:08;;;;;;;;;;;;;;;;;;5081643;28;19920;-74
2022/08/19 11:53:34;;;;;;;;;;;;;;;;;;5091826;28;19985;-77
2022/08/19 11:56:00;;;;;;;;;;;;;;;;;;5092592;28;20366;-76
2022/08/19 11:58:26;;;;;;;;;;;;;;;;;;5092484;28;19920;-75
2022/08/19 12:00:52;;;;;;;;;;;;;;;;;;5083435;28;19943;-73
2022/08/19 12:03:19;;;;;;;;;;;;;;;;;;5088881;28;19989;-72
2022/08/19 12:05:45;;;;;;;;;;;;;;;;;;5082720;28;19946;-80
2022/08/19 12:08:12;;;;;;;;;;;;;;;;;;5060242;28;20343;-73
2022/08/19 12:10:38;;;;;;;;;;;;;;;;;;5091791;28;20359;-74
2022/08/19 12:13:04;;;;;;;;;;;;;;;;;;5084825;28;19928;-74
2022/08/19 12:15:30;;;;;;;;;;;;;;;;;;5065358;28;20379;-76
2022/08/19 12:17:56;;;;;;;;;;;;;;;;;;5087258;28;19973;-72
2022/08/19 12:20:22;;;;;;;;;;;;;;;;;;5066718;28;20011;-78
2022/08/19 12:22:48;;;;;;;;;;;;;;;;;;5089627;28;19942;-74
2022/08/19 12:25:14;;;;;;;;;;;;;;;;;;5094888;28;19999;-73
2022/08/19 12:27:40;;;;;;;;;;;;;;;;;;5094887;28;19981;-73
2022/08/19 12:30:06;;;;;;;;;;;;;;;;;;5077782;28;19930;-73
2022/08/19 12:32:32;;;;;;;;;;;;;;;;;;5097566;28;20248;-73
2022/08/19 12:34:57;;;;;;;;;;;;;;;;;;5086372;28;19920;-73
2022/08/19 12:37:23;;;;;;;;;;;;;;;;;;5059450;28;19928;-73
2022/08/19 12:39:49;;;;;;;;;;;;;;;;;;5094138;28;19972;-76
2022/08/19 12:42:15;;;;;;;;;;;;;;;;;;5084360;28;19963;-73
2022/08/19 12:44:41;;;;;;;;;;;;;;;;;;5107748;27;19920;-73
2022/08/19 12:47:07;;;;;;;;;;;;;;;;;;5092310;28;19920;-74
2022/08/19 12:49:33;;;;;;;;;;;;;;;;;;5082630;28;20066;-74
2022/08/19 12:52:00;;;;;;;;;;;;;;;;;;5096551;28;19919;-78
2022/08/19 12:54:26;;;;;;;;;;;;;;;;;;5072733;28;19927;-74
2022/08/19 12:56:52;;;;;;;;;;;;;;;;;;5097405;28;19920;-73
2022/08/19 12:59:18;;;;;;;;;;;;;;;;;;5064593;28;19923;-73
2022/08/19 13:01:44;;;;;;;;;;;;;;;;;;5094418;28;20244;-73
2022/08/19 13:04:10;;;;;;;;;;;;;;;;;;5089351;28;20042;-73
2022/08/19 13:06:36;;;;;;;;;;;;;;;;;;5077429;28;19920;-74
2022/08/19 13:09:02;;;;;;;;;;;;;;;;;;5071048;28;19920;-74
2022/08/19 13:11:32;;;;;;;;;;;;;;;;;;5073133;28;19927;-74
2022/08/19 13:13:58;;;;;;;;;;;;;;;;;;5114394;27;19919;-74
2022/08/19 13:16:23;;;;;;;;;;;;;;;;;;5075963;28;19924;-74
2022/08/19 13:18:51;;;;;;;;;;;;;;;;;;5102815;28;19920;-78
2022/08/19 13:21:19;;;;;;;;;;;;;;;;;;5088926;28;19925;-76
2022/08/19 13:23:45;;;;;;;;;;;;;;;;;;5064842;28;19920;-73
2022/08/19 13:26:11;;;;;;;;;;;;;;;;;;5090995;28;19924;-74
2022/08/19 13:34:06;;;;;;;;;;;;;;;;;;5065808;28;19928;-73
2022/08/19 13:36:32;;;;;;;;;;;;;;;;;;5076113;28;19966;-80
2022/08/19 13:38:58;;;;;;;;;;;;;;;;;;5072198;28;19943;-77
2022/08/19 13:41:24;;;;;;;;;;;;;;;;;;5091000;28;20091;-77
2022/08/19 13:43:50;;;;;;;;;;;;;;;;;;5092823;28;19932;-78
2022/08/19 13:46:16;;;;;;;;;;;;;;;;;;5071280;28;20366;-78
2022/08/19 13:48:42;;;;;;;;;;;;;;;;;;5076238;28;20366;-77
2022/08/19 13:51:11;;;;;;;;;;;;;;;;;;5074050;28;19927;-78
2022/08/19 13:53:42;;;;;;;;;;;;;;;;;;5074312;28;19971;-77
2022/08/19 13:56:08;;;;;;;;;;;;;;;;;;5084184;28;19920;-76
2022/08/19 13:58:34;;;;;;;;;;;;;;;;;;5092205;28;20274;-77
2022/08/19 14:01:00;;;;;;;;;;;;;;;;;;5073501;28;20298;-75
2022/08/19 14:03:26;;;;;;;;;;;;;;;;;;5088721;28;19927;-74
2022/08/19 14:05:52;;;;;;;;;;;;;;;;;;5073630;28;19920;-74
2022/08/19 14:08:18;;;;;;;;;;;;;;;;;;5076317;28;19920;-74
2022/08/19 14:10:44;;;;;;;;;;;;;;;;;;5074011;28;20297;-75
2022/08/19 14:13:10;;;;;;;;;;;;;;;;;;5098141;28;20426;-76
2022/08/19 14:15:37;;;;;;;;;;;;;;;;;;5072512;28;20010;-75
2022/08/19 14:18:02;;;;;;;;;;;;;;;;;;5072874;28;19971;-76
2022/08/19 14:20:28;;;;;;;;;;;;;;;;;;5089974;28;19955;-76
2022/08/19 14:22:55;;;;;;;;;;;;;;;;;;5100473;28;19920;-75
2022/08/19 14:25:21;;;;;;;;;;;;;;;;;;5092507;28;19959;-76
2022/08/19 14:27:47;;;;;;;;;;;;;;;;;;5090614;28;19962;-76
2022/08/19 14:30:13;;;;;;;;;;;;;;;;;;5070763;28;19920;-76
2022/08/19 14:32:39;;;;;;;;;;;;;;;;;;5085799;28;19972;-76
2022/08/19 14:35:06;;;;;;;;;;;;;;;;;;5077302;28;19920;-77
2022/08/19 14:37:32;;;;;;;;;;;;;;;;;;5102525;28;19927;-77
2022/08/19 14:39:58;;;;;;;;;;;;;;;;;;5106630;28;20530;-82
2022/08/19 14:42:24;;;;;;;;;;;;;;;;;;5099161;28;19934;-77
2022/08/19 14:44:50;;;;;;;;;;;;;;;;;;5099823;28;20310;-78
2022/08/19 14:47:16;;;;;;;;;;;;;;;;;;5088932;28;19968;-77
2022/08/19 14:49:43;;;;;;;;;;;;;;;;;;5109236;28;19919;-79
2022/08/19 14:52:09;;;;;;;;;;;;;;;;;;5059648;28;20035;-77
2022/08/19 14:54:35;;;;;;;;;;;;;;;;;;5094043;28;20369;-77
2022/08/19 14:57:01;;;;;;;;;;;;;;;;;;5087150;28;19979;-81
2022/08/19 14:59:27;;;;;;;;;;;;;;;;;;5095566;28;19943;-80
2022/08/19 15:01:53;;;;;;;;;;;;;;;;;;5105317;28;20535;-76
2022/08/19 15:04:19;;;;;;;;;;;;;;;;;;5091580;28;19930;-76
2022/08/19 15:06:45;;;;;;;;;;;;;;;;;;5103948;28;19920;-77
2022/08/19 15:09:11;;;;;;;;;;;;;;;;;;5093690;28;19920;-77
2022/08/19 15:11:38;;;;;;;;;;;;;;;;;;5079031;28;19939;-77
2022/08/19 15:14:05;;;;;;;;;;;;;;;;;;5075657;28;19924;-77
2022/08/19 15:16:31;;;;;;;;;;;;;;;;;;5091649;28;20337;-77
2022/08/19 15:18:57;;;;;;;;;;;;;;;;;;5099160;28;20003;-77
2022/08/19 15:21:23;;;;;;;;;;;;;;;;;;5087721;28;20366;-77
2022/08/19 15:23:49;;;;;;;;;;;;;;;;;;5090061;28;19920;-77
2022/08/19 15:26:15;;;;;;;;;;;;;;;;;;5077076;28;19927;-76
2022/08/19 15:28:41;;;;;;;;;;;;;;;;;;5104839;28;19924;-76
2022/08/19 15:31:07;;;;;;;;;;;;;;;;;;5089891;28;19927;-77
2022/08/19 15:33:35;;;;;;;;;;;;;;;;;;5088872;28;20519;-76
2022/08/19 15:36:02;;;;;;;;;;;;;;;;;;5084723;28;19927;-81
2022/08/19 15:38:28;;;;;;;;;;;;;;;;;;5076765;28;19946;-78
2022/08/19 15:41:22;;;;;;;;;;;;;;;;;;5076475;28;19923;-75
2022/08/19 15:43:39;;;;;;;;;;;;;;;;;;5102082;27;20029;-76
2022/08/19 15:46:05;;;;;;;;;;;;;;;;;;5098620;28;19927;-77
2022/08/19 15:48:31;;;;;;;;;;;;;;;;;;5069649;28;19928;-77
2022/08/19 15:50:57;;;;;;;;;;;;;;;;;;5098066;28;19920;-76
2022/08/19 15:53:24;;;;;;;;;;;;;;;;;;5079002;28;20007;-74
2022/08/19 15:55:50;;;;;;;;;;;;;;;;;;5086928;28;20282;-74
2022/08/19 16:06:38;;;;;;;;;;;;;;;;;;5059234;28;19920;-75
2022/08/19 16:09:04;;;;;;;;;;;;;;;;;;5103617;28;19931;-80
2022/08/19 16:11:30;;;;;;;;;;;;;;;;;;5087008;28;20347;-72
2022/08/19 16:13:56;;;;;;;;;;;;;;;;;;5083934;28;19924;-74
2022/08/19 16:16:22;;;;;;;;;;;;;;;;;;5096617;28;20287;-72
2022/08/19 16:18:51;;;;;;;;;;;;;;;;;;5092913;28;19980;-74
2022/08/19 16:21:17;;;;;;;;;;;;;;;;;;5077688;28;20573;-72
2022/08/19 16:23:43;;;;;;;;;;;;;;;;;;5112660;28;19919;-72
2022/08/19 16:26:09;;;;;;;;;;;;;;;;;;5096096;28;20677;-73
2022/08/19 16:28:35;;;;;;;;;;;;;;;;;;5092354;28;19971;-72
2022/08/19 16:31:01;;;;;;;;;;;;;;;;;;5092553;28;19927;-72
2022/08/19 16:33:27;;;;;;;;;;;;;;;;;;5090730;28;19924;-76
2022/08/19 16:35:53;;;;;;;;;;;;;;;;;;5099884;28;19920;-72
2022/08/19 16:38:20;;;;;;;;;;;;;;;;;;5090649;28;19920;-72
2022/08/19 16:40:47;;;;;;;;;;;;;;;;;;5074281;28;20351;-72
2022/08/19 16:43:13;;;;;;;;;;;;;;;;;;5103899;28;20006;-73
2022/08/19 16:45:39;;;;;;;;;;;;;;;;;;5077157;28;20007;-72
2022/08/19 16:48:06;;;;;;;;;;;;;;;;;;5062976;28;20096;-71
2022/08/19 16:50:32;;;;;;;;;;;;;;;;;;5087085;28;19966;-72
2022/08/19 16:52:58;;;;;;;;;;;;;;;;;;5086846;28;20354;-73
2022/08/19 16:55:26;;;;;;;;;;;;;;;;;;5079155;28;19924;-77
2022/08/19 16:57:52;;;;;;;;;;;;;;;;;;5089447;28;20244;-77
2022/08/19 17:00:19;;;;;;;;;;;;;;;;;;5095770;28;19927;-78
2022/08/19 17:02:45;;;;;;;;;;;;;;;;;;5096729;28;19974;-77
2022/08/19 17:05:11;;;;;;;;;;;;;;;;;;5088132;28;19971;-80
2022/08/19 17:07:37;;;;;;;;;;;;;;;;;;5088261;28;19925;-80
2022/08/19 17:10:03;;;;;;;;;;;;;;;;;;5089459;28;20351;-78
2022/08/19 17:12:30;;;;;;;;;;;;;;;;;;5071346;28;20540;-78
2022/08/19 17:14:56;;;;;;;;;;;;;;;;;;5092333;28;19920;-80
2022/08/19 17:17:21;;;;;;;;;;;;;;;;;;5096465;28;19935;-75